sensor_id;sensor_type;location;lat;lon;timestamp;P1;durP1;ratioP1;P2;durP2;ratioP2
49536;SDS011;74893;30.696;104.058;2023-12-20T00:01:19;21.88;;;19.63;;
49536;SDS011;74893;30.696;104.058;2023-12-20T00:03:46;22.33;;;19.92;;
49536;SDS011;74893;30.696;104.058;2023-12-20T00:06:13;21.75;;;19.55;;
49536;SDS011;74893;30.696;104.058;2023-12-20T00:08:40;20.70;;;18.55;;
49536;SDS011;74893;30.696;104.058;2023-12-20T00:11:07;21.55;;;19.23;;
49536;SDS011;74893;30.696;104.058;2023-12-20T00:13:34;21.50;;;19.23;;
49536;SDS011;74893;30.696;104.058;2023-12-20T00:16:01;21.35;;;19.05;;
49536;SDS011;74893;30.696;104.058;2023-12-20T00:18:28;21.52;;;19.35;;
49536;SDS011;74893;30.696;104.058;2023-12-20T00:20:55;21.83;;;19.33;;
49536;SDS011;74893;30.696;104.058;2023-12-20T00:23:24;21.63;;;19.42;;
49536;SDS011;74893;30.696;104.058;2023-12-20T00:25:53;21.85;;;19.55;;
49536;SDS011;74893;30.696;104.058;2023-12-20T00:28:22;21.95;;;19.75;;
49536;SDS011;74893;30.696;104.058;2023-12-20T00:30:49;21.83;;;19.48;;
49536;SDS011;74893;30.696;104.058;2023-12-20T00:33:16;22.13;;;19.80;;
49536;SDS011;74893;30.696;104.058;2023-12-20T00:35:43;21.38;;;19.17;;
49536;SDS011;74893;30.696;104.058;2023-12-20T00:38:10;22.40;;;20.08;;
49536;SDS011;74893;30.696;104.058;2023-12-20T00:40:37;21.58;;;19.38;;
49536;SDS011;74893;30.696;104.058;2023-12-20T00:43:04;21.73;;;19.38;;
49536;SDS011;74893;30.696;104.058;2023-12-20T00:45:31;22.70;;;20.30;;
49536;SDS011;74893;30.696;104.058;2023-12-20T00:47:58;22.77;;;19.65;;
49536;SDS011;74893;30.696;104.058;2023-12-20T00:50:25;22.17;;;19.30;;
49536;SDS011;74893;30.696;104.058;2023-12-20T00:52:52;22.75;;;20.33;;
49536;SDS011;74893;30.696;104.058;2023-12-20T00:55:20;22.30;;;19.50;;
49536;SDS011;74893;30.696;104.058;2023-12-20T00:57:47;22.05;;;19.60;;
49536;SDS011;74893;30.696;104.058;2023-12-20T01:00:14;22.75;;;20.35;;
49536;SDS011;74893;30.696;104.058;2023-12-20T01:02:41;22.17;;;19.92;;
49536;SDS011;74893;30.696;104.058;2023-12-20T01:05:08;22.17;;;19.92;;
49536;SDS011;74893;30.696;104.058;2023-12-20T01:07:35;23.48;;;20.52;;
49536;SDS011;74893;30.696;104.058;2023-12-20T01:10:02;23.38;;;20.88;;
49536;SDS011;74893;30.696;104.058;2023-12-20T01:12:29;22.02;;;19.63;;
49536;SDS011;74893;30.696;104.058;2023-12-20T01:14:56;22.35;;;20.05;;
49536;SDS011;74893;30.696;104.058;2023-12-20T01:17:24;22.80;;;20.50;;
49536;SDS011;74893;30.696;104.058;2023-12-20T01:19:51;23.50;;;20.90;;
49536;SDS011;74893;30.696;104.058;2023-12-20T01:22:18;22.08;;;19.73;;
49536;SDS011;74893;30.696;104.058;2023-12-20T01:24:45;22.70;;;20.30;;
49536;SDS011;74893;30.696;104.058;2023-12-20T01:27:12;22.60;;;20.30;;
49536;SDS011;74893;30.696;104.058;2023-12-20T01:29:41;23.35;;;20.48;;
49536;SDS011;74893;30.696;104.058;2023-12-20T01:32:08;22.83;;;20.52;;
49536;SDS011;74893;30.696;104.058;2023-12-20T01:34:35;22.20;;;19.65;;
49536;SDS011;74893;30.696;104.058;2023-12-20T01:37:02;23.05;;;20.65;;
49536;SDS011;74893;30.696;104.058;2023-12-20T01:39:30;23.08;;;19.83;;
49536;SDS011;74893;30.696;104.058;2023-12-20T01:41:57;24.85;;;21.23;;
49536;SDS011;74893;30.696;104.058;2023-12-20T01:44:24;23.45;;;20.95;;
49536;SDS011;74893;30.696;104.058;2023-12-20T01:46:51;23.63;;;21.20;;
49536;SDS011;74893;30.696;104.058;2023-12-20T01:49:18;23.50;;;21.20;;
49536;SDS011;74893;30.696;104.058;2023-12-20T01:51:45;23.13;;;20.67;;
49536;SDS011;74893;30.696;104.058;2023-12-20T01:54:12;22.25;;;19.92;;
49536;SDS011;74893;30.696;104.058;2023-12-20T01:56:39;24.70;;;22.10;;
49536;SDS011;74893;30.696;104.058;2023-12-20T01:59:06;24.85;;;21.50;;
49536;SDS011;74893;30.696;104.058;2023-12-20T02:01:35;23.13;;;20.75;;
49536;SDS011;74893;30.696;104.058;2023-12-20T02:04:02;23.35;;;20.85;;
49536;SDS011;74893;30.696;104.058;2023-12-20T02:06:30;24.77;;;21.95;;
49536;SDS011;74893;30.696;104.058;2023-12-20T02:08:57;23.63;;;20.67;;
49536;SDS011;74893;30.696;104.058;2023-12-20T02:11:25;24.08;;;21.17;;
49536;SDS011;74893;30.696;104.058;2023-12-20T02:13:53;23.25;;;20.60;;
49536;SDS011;74893;30.696;104.058;2023-12-20T02:16:20;22.92;;;20.45;;
49536;SDS011;74893;30.696;104.058;2023-12-20T02:18:48;23.60;;;21.05;;
49536;SDS011;74893;30.696;104.058;2023-12-20T02:21:15;26.17;;;22.30;;
49536;SDS011;74893;30.696;104.058;2023-12-20T02:23:42;23.63;;;21.13;;
49536;SDS011;74893;30.696;104.058;2023-12-20T02:26:09;24.92;;;21.92;;
49536;SDS011;74893;30.696;104.058;2023-12-20T02:28:36;24.23;;;21.70;;
49536;SDS011;74893;30.696;104.058;2023-12-20T02:31:03;24.38;;;21.60;;
49536;SDS011;74893;30.696;104.058;2023-12-20T02:33:30;25.17;;;22.45;;
49536;SDS011;74893;30.696;104.058;2023-12-20T02:35:57;23.65;;;21.15;;
49536;SDS011;74893;30.696;104.058;2023-12-20T02:38:24;22.92;;;20.58;;
49536;SDS011;74893;30.696;104.058;2023-12-20T02:40:51;24.10;;;21.60;;
49536;SDS011;74893;30.696;104.058;2023-12-20T02:43:18;24.02;;;21.50;;
49536;SDS011;74893;30.696;104.058;2023-12-20T02:45:45;24.20;;;21.50;;
49536;SDS011;74893;30.696;104.058;2023-12-20T02:48:12;23.30;;;20.80;;
49536;SDS011;74893;30.696;104.058;2023-12-20T02:50:39;22.92;;;20.50;;
49536;SDS011;74893;30.696;104.058;2023-12-20T02:53:06;25.20;;;22.52;;
49536;SDS011;74893;30.696;104.058;2023-12-20T02:55:33;24.02;;;21.52;;
49536;SDS011;74893;30.696;104.058;2023-12-20T02:58:00;24.77;;;22.17;;
49536;SDS011;74893;30.696;104.058;2023-12-20T03:00:27;24.52;;;21.92;;
49536;SDS011;74893;30.696;104.058;2023-12-20T03:02:54;23.83;;;21.33;;
49536;SDS011;74893;30.696;104.058;2023-12-20T03:05:21;23.88;;;21.38;;
49536;SDS011;74893;30.696;104.058;2023-12-20T03:07:48;23.83;;;21.27;;
49536;SDS011;74893;30.696;104.058;2023-12-20T03:10:15;24.15;;;21.70;;
49536;SDS011;74893;30.696;104.058;2023-12-20T03:12:42;24.83;;;22.15;;
49536;SDS011;74893;30.696;104.058;2023-12-20T03:15:10;24.77;;;22.17;;
49536;SDS011;74893;30.696;104.058;2023-12-20T03:17:37;25.10;;;22.50;;
49536;SDS011;74893;30.696;104.058;2023-12-20T03:20:05;25.77;;;21.48;;
49536;SDS011;74893;30.696;104.058;2023-12-20T03:22:32;24.60;;;21.48;;
49536;SDS011;74893;30.696;104.058;2023-12-20T03:24:59;25.58;;;22.83;;
49536;SDS011;74893;30.696;104.058;2023-12-20T03:27:26;26.13;;;23.30;;
49536;SDS011;74893;30.696;104.058;2023-12-20T03:29:53;25.25;;;22.48;;
49536;SDS011;74893;30.696;104.058;2023-12-20T03:32:20;25.85;;;22.02;;
49536;SDS011;74893;30.696;104.058;2023-12-20T03:34:47;25.67;;;22.52;;
49536;SDS011;74893;30.696;104.058;2023-12-20T03:37:14;25.92;;;22.45;;
49536;SDS011;74893;30.696;104.058;2023-12-20T03:39:41;23.80;;;21.13;;
49536;SDS011;74893;30.696;104.058;2023-12-20T03:42:08;25.25;;;21.73;;
49536;SDS011;74893;30.696;104.058;2023-12-20T03:44:37;27.75;;;21.67;;
49536;SDS011;74893;30.696;104.058;2023-12-20T03:47:05;24.52;;;21.83;;
49536;SDS011;74893;30.696;104.058;2023-12-20T03:49:33;25.52;;;22.45;;
49536;SDS011;74893;30.696;104.058;2023-12-20T03:52:02;24.42;;;21.60;;
49536;SDS011;74893;30.696;104.058;2023-12-20T03:54:29;24.45;;;21.88;;
49536;SDS011;74893;30.696;104.058;2023-12-20T03:56:57;26.02;;;22.90;;
49536;SDS011;74893;30.696;104.058;2023-12-20T03:59:25;25.48;;;22.77;;
49536;SDS011;74893;30.696;104.058;2023-12-20T04:01:52;24.27;;;21.67;;
49536;SDS011;74893;30.696;104.058;2023-12-20T04:04:19;24.98;;;22.00;;
49536;SDS011;74893;30.696;104.058;2023-12-20T04:06:46;25.35;;;22.02;;
49536;SDS011;74893;30.696;104.058;2023-12-20T04:09:14;24.55;;;21.98;;
49536;SDS011;74893;30.696;104.058;2023-12-20T04:11:41;25.70;;;23.00;;
49536;SDS011;74893;30.696;104.058;2023-12-20T04:14:08;26.08;;;23.30;;
49536;SDS011;74893;30.696;104.058;2023-12-20T04:16:35;23.55;;;21.15;;
49536;SDS011;74893;30.696;104.058;2023-12-20T04:19:02;24.83;;;21.95;;
49536;SDS011;74893;30.696;104.058;2023-12-20T04:21:30;24.45;;;21.60;;
49536;SDS011;74893;30.696;104.058;2023-12-20T04:23:57;26.52;;;23.45;;
49536;SDS011;74893;30.696;104.058;2023-12-20T04:26:25;25.80;;;23.17;;
49536;SDS011;74893;30.696;104.058;2023-12-20T04:28:52;25.27;;;22.58;;
49536;SDS011;74893;30.696;104.058;2023-12-20T04:31:19;24.38;;;21.75;;
49536;SDS011;74893;30.696;104.058;2023-12-20T04:33:46;24.88;;;22.25;;
49536;SDS011;74893;30.696;104.058;2023-12-20T04:36:13;23.13;;;20.80;;
49536;SDS011;74893;30.696;104.058;2023-12-20T04:38:40;25.25;;;22.55;;
49536;SDS011;74893;30.696;104.058;2023-12-20T04:41:07;25.02;;;22.42;;
49536;SDS011;74893;30.696;104.058;2023-12-20T04:43:34;25.05;;;22.20;;
49536;SDS011;74893;30.696;104.058;2023-12-20T04:46:01;25.15;;;22.55;;
49536;SDS011;74893;30.696;104.058;2023-12-20T04:48:28;25.38;;;22.40;;
49536;SDS011;74893;30.696;104.058;2023-12-20T04:50:55;24.05;;;21.48;;
49536;SDS011;74893;30.696;104.058;2023-12-20T04:53:22;25.17;;;22.50;;
49536;SDS011;74893;30.696;104.058;2023-12-20T04:55:49;25.02;;;22.35;;
49536;SDS011;74893;30.696;104.058;2023-12-20T04:58:18;23.77;;;21.30;;
49536;SDS011;74893;30.696;104.058;2023-12-20T05:00:45;24.65;;;22.05;;
49536;SDS011;74893;30.696;104.058;2023-12-20T05:03:12;25.15;;;22.45;;
49536;SDS011;74893;30.696;104.058;2023-12-20T05:05:40;25.77;;;22.30;;
49536;SDS011;74893;30.696;104.058;2023-12-20T05:08:07;24.27;;;21.75;;
49536;SDS011;74893;30.696;104.058;2023-12-20T05:10:34;26.17;;;21.65;;
49536;SDS011;74893;30.696;104.058;2023-12-20T05:13:02;25.52;;;22.75;;
49536;SDS011;74893;30.696;104.058;2023-12-20T05:15:29;26.33;;;23.52;;
49536;SDS011;74893;30.696;104.058;2023-12-20T05:17:56;25.65;;;22.70;;
49536;SDS011;74893;30.696;104.058;2023-12-20T05:20:23;24.17;;;21.27;;
49536;SDS011;74893;30.696;104.058;2023-12-20T05:22:50;24.67;;;22.08;;
49536;SDS011;74893;30.696;104.058;2023-12-20T05:25:18;27.10;;;21.88;;
49536;SDS011;74893;30.696;104.058;2023-12-20T05:27:45;25.73;;;23.05;;
49536;SDS011;74893;30.696;104.058;2023-12-20T05:30:12;25.27;;;22.67;;
49536;SDS011;74893;30.696;104.058;2023-12-20T05:32:39;25.60;;;22.83;;
49536;SDS011;74893;30.696;104.058;2023-12-20T05:35:09;25.02;;;22.15;;
49536;SDS011;74893;30.696;104.058;2023-12-20T05:37:36;24.35;;;21.75;;
49536;SDS011;74893;30.696;104.058;2023-12-20T05:40:03;26.58;;;23.05;;
49536;SDS011;74893;30.696;104.058;2023-12-20T05:42:30;24.90;;;22.20;;
49536;SDS011;74893;30.696;104.058;2023-12-20T05:44:57;25.90;;;23.00;;
49536;SDS011;74893;30.696;104.058;2023-12-20T05:47:24;25.50;;;22.63;;
49536;SDS011;74893;30.696;104.058;2023-12-20T05:49:51;24.83;;;22.25;;
49536;SDS011;74893;30.696;104.058;2023-12-20T05:52:18;25.15;;;22.45;;
49536;SDS011;74893;30.696;104.058;2023-12-20T05:54:45;24.83;;;21.80;;
49536;SDS011;74893;30.696;104.058;2023-12-20T05:57:12;24.83;;;22.13;;
49536;SDS011;74893;30.696;104.058;2023-12-20T05:59:38;26.60;;;22.88;;
49536;SDS011;74893;30.696;104.058;2023-12-20T06:02:05;24.23;;;21.67;;
49536;SDS011;74893;30.696;104.058;2023-12-20T06:04:32;25.23;;;22.58;;
49536;SDS011;74893;30.696;104.058;2023-12-20T06:07:00;25.42;;;22.80;;
49536;SDS011;74893;30.696;104.058;2023-12-20T06:09:27;25.58;;;22.77;;
49536;SDS011;74893;30.696;104.058;2023-12-20T06:11:54;24.63;;;22.13;;
49536;SDS011;74893;30.696;104.058;2023-12-20T06:14:21;25.90;;;23.25;;
49536;SDS011;74893;30.696;104.058;2023-12-20T06:16:48;27.50;;;23.85;;
49536;SDS011;74893;30.696;104.058;2023-12-20T06:19:17;25.33;;;22.73;;
49536;SDS011;74893;30.696;104.058;2023-12-20T06:21:46;26.50;;;23.25;;
49536;SDS011;74893;30.696;104.058;2023-12-20T06:24:15;27.10;;;23.02;;
49536;SDS011;74893;30.696;104.058;2023-12-20T06:26:42;25.10;;;22.50;;
49536;SDS011;74893;30.696;104.058;2023-12-20T06:29:09;26.08;;;22.60;;
49536;SDS011;74893;30.696;104.058;2023-12-20T06:31:36;25.65;;;22.85;;
49536;SDS011;74893;30.696;104.058;2023-12-20T06:34:03;25.80;;;23.10;;
49536;SDS011;74893;30.696;104.058;2023-12-20T06:36:30;25.10;;;22.42;;
49536;SDS011;74893;30.696;104.058;2023-12-20T06:38:59;25.52;;;21.77;;
49536;SDS011;74893;30.696;104.058;2023-12-20T06:41:26;25.25;;;22.63;;
49536;SDS011;74893;30.696;104.058;2023-12-20T06:43:53;25.08;;;22.42;;
49536;SDS011;74893;30.696;104.058;2023-12-20T06:46:20;25.40;;;22.70;;
49536;SDS011;74893;30.696;104.058;2023-12-20T06:48:47;25.98;;;23.08;;
49536;SDS011;74893;30.696;104.058;2023-12-20T06:51:14;24.42;;;21.83;;
49536;SDS011;74893;30.696;104.058;2023-12-20T06:53:42;25.92;;;23.23;;
49536;SDS011;74893;30.696;104.058;2023-12-20T06:56:09;26.17;;;23.38;;
49536;SDS011;74893;30.696;104.058;2023-12-20T06:58:37;25.00;;;22.40;;
49536;SDS011;74893;30.696;104.058;2023-12-20T07:01:04;26.42;;;23.00;;
49536;SDS011;74893;30.696;104.058;2023-12-20T07:03:32;26.90;;;23.42;;
49536;SDS011;74893;30.696;104.058;2023-12-20T07:05:58;26.25;;;23.25;;
49536;SDS011;74893;30.696;104.058;2023-12-20T07:08:26;26.20;;;22.65;;
49536;SDS011;74893;30.696;104.058;2023-12-20T07:10:53;25.50;;;22.80;;
49536;SDS011;74893;30.696;104.058;2023-12-20T07:13:20;25.70;;;22.85;;
49536;SDS011;74893;30.696;104.058;2023-12-20T07:15:49;27.30;;;24.27;;
49536;SDS011;74893;30.696;104.058;2023-12-20T07:18:16;25.73;;;22.27;;
49536;SDS011;74893;30.696;104.058;2023-12-20T07:20:43;27.17;;;22.67;;
49536;SDS011;74893;30.696;104.058;2023-12-20T07:23:11;24.95;;;22.35;;
49536;SDS011;74893;30.696;104.058;2023-12-20T07:25:38;26.85;;;22.92;;
49536;SDS011;74893;30.696;104.058;2023-12-20T07:28:05;26.55;;;23.10;;
49536;SDS011;74893;30.696;104.058;2023-12-20T07:30:32;25.58;;;22.88;;
49536;SDS011;74893;30.696;104.058;2023-12-20T07:32:59;25.45;;;22.05;;
49536;SDS011;74893;30.696;104.058;2023-12-20T07:35:27;24.60;;;21.92;;
49536;SDS011;74893;30.696;104.058;2023-12-20T07:37:54;26.58;;;22.45;;
49536;SDS011;74893;30.696;104.058;2023-12-20T07:40:21;26.02;;;23.23;;
49536;SDS011;74893;30.696;104.058;2023-12-20T07:42:49;26.48;;;23.65;;
49536;SDS011;74893;30.696;104.058;2023-12-20T07:45:16;24.98;;;22.35;;
49536;SDS011;74893;30.696;104.058;2023-12-20T07:47:43;25.60;;;22.95;;
49536;SDS011;74893;30.696;104.058;2023-12-20T07:50:10;26.27;;;22.90;;
49536;SDS011;74893;30.696;104.058;2023-12-20T07:52:37;24.90;;;22.23;;
49536;SDS011;74893;30.696;104.058;2023-12-20T07:55:04;24.50;;;21.90;;
49536;SDS011;74893;30.696;104.058;2023-12-20T07:57:31;27.02;;;23.33;;
49536;SDS011;74893;30.696;104.058;2023-12-20T07:59:58;25.67;;;22.90;;
49536;SDS011;74893;30.696;104.058;2023-12-20T08:02:25;25.98;;;23.13;;
49536;SDS011;74893;30.696;104.058;2023-12-20T08:04:52;25.88;;;22.92;;
49536;SDS011;74893;30.696;104.058;2023-12-20T08:07:19;25.85;;;22.73;;
49536;SDS011;74893;30.696;104.058;2023-12-20T08:09:46;24.13;;;21.52;;
49536;SDS011;74893;30.696;104.058;2023-12-20T08:12:15;26.40;;;22.85;;
49536;SDS011;74893;30.696;104.058;2023-12-20T08:14:42;25.50;;;22.70;;
49536;SDS011;74893;30.696;104.058;2023-12-20T08:17:09;26.38;;;23.58;;
49536;SDS011;74893;30.696;104.058;2023-12-20T08:19:36;25.60;;;22.23;;
49536;SDS011;74893;30.696;104.058;2023-12-20T08:22:07;24.45;;;21.85;;
49536;SDS011;74893;30.696;104.058;2023-12-20T08:24:33;25.75;;;22.52;;
49536;SDS011;74893;30.696;104.058;2023-12-20T08:27:00;25.60;;;22.00;;
49536;SDS011;74893;30.696;104.058;2023-12-20T08:29:27;25.33;;;22.00;;
49536;SDS011;74893;30.696;104.058;2023-12-20T08:31:54;24.70;;;22.00;;
49536;SDS011;74893;30.696;104.058;2023-12-20T08:34:22;27.45;;;23.50;;
49536;SDS011;74893;30.696;104.058;2023-12-20T08:36:53;24.90;;;22.17;;
49536;SDS011;74893;30.696;104.058;2023-12-20T08:39:20;25.83;;;22.92;;
49536;SDS011;74893;30.696;104.058;2023-12-20T08:41:48;25.45;;;22.75;;
49536;SDS011;74893;30.696;104.058;2023-12-20T08:44:18;25.73;;;22.45;;
49536;SDS011;74893;30.696;104.058;2023-12-20T08:46:46;24.38;;;21.65;;
49536;SDS011;74893;30.696;104.058;2023-12-20T08:49:15;25.77;;;23.02;;
49536;SDS011;74893;30.696;104.058;2023-12-20T08:51:45;25.20;;;22.52;;
49536;SDS011;74893;30.696;104.058;2023-12-20T08:54:12;24.83;;;22.20;;
49536;SDS011;74893;30.696;104.058;2023-12-20T08:56:39;24.42;;;21.83;;
49536;SDS011;74893;30.696;104.058;2023-12-20T08:59:06;24.98;;;22.40;;
49536;SDS011;74893;30.696;104.058;2023-12-20T09:01:33;26.88;;;23.98;;
49536;SDS011;74893;30.696;104.058;2023-12-20T09:04:00;24.80;;;22.20;;
49536;SDS011;74893;30.696;104.058;2023-12-20T09:06:27;25.98;;;23.10;;
49536;SDS011;74893;30.696;104.058;2023-12-20T09:08:54;27.58;;;23.45;;
49536;SDS011;74893;30.696;104.058;2023-12-20T09:11:21;25.35;;;22.35;;
49536;SDS011;74893;30.696;104.058;2023-12-20T09:13:48;26.98;;;22.55;;
49536;SDS011;74893;30.696;104.058;2023-12-20T09:16:15;25.33;;;22.67;;
49536;SDS011;74893;30.696;104.058;2023-12-20T09:18:45;25.88;;;22.65;;
49536;SDS011;74893;30.696;104.058;2023-12-20T09:21:12;25.50;;;22.83;;
49536;SDS011;74893;30.696;104.058;2023-12-20T09:23:39;25.73;;;22.33;;
49536;SDS011;74893;30.696;104.058;2023-12-20T09:26:06;25.73;;;23.00;;
49536;SDS011;74893;30.696;104.058;2023-12-20T09:28:33;25.45;;;22.35;;
49536;SDS011;74893;30.696;104.058;2023-12-20T09:31:03;25.45;;;22.75;;
49536;SDS011;74893;30.696;104.058;2023-12-20T09:33:31;25.25;;;22.65;;
49536;SDS011;74893;30.696;104.058;2023-12-20T09:35:58;24.88;;;22.17;;
49536;SDS011;74893;30.696;104.058;2023-12-20T09:38:25;25.30;;;22.60;;
49536;SDS011;74893;30.696;104.058;2023-12-20T09:40:52;26.88;;;22.70;;
49536;SDS011;74893;30.696;104.058;2023-12-20T09:43:20;25.90;;;23.00;;
49536;SDS011;74893;30.696;104.058;2023-12-20T09:45:52;24.65;;;21.98;;
49536;SDS011;74893;30.696;104.058;2023-12-20T09:48:20;24.65;;;22.02;;
49536;SDS011;74893;30.696;104.058;2023-12-20T09:50:47;25.10;;;22.45;;
49536;SDS011;74893;30.696;104.058;2023-12-20T09:53:15;25.27;;;22.27;;
49536;SDS011;74893;30.696;104.058;2023-12-20T09:55:42;25.05;;;22.33;;
49536;SDS011;74893;30.696;104.058;2023-12-20T09:58:09;26.45;;;22.48;;
49536;SDS011;74893;30.696;104.058;2023-12-20T10:00:36;27.20;;;23.13;;
49536;SDS011;74893;30.696;104.058;2023-12-20T10:03:03;25.83;;;23.05;;
49536;SDS011;74893;30.696;104.058;2023-12-20T10:05:31;25.83;;;22.98;;
49536;SDS011;74893;30.696;104.058;2023-12-20T10:07:59;25.33;;;22.70;;
49536;SDS011;74893;30.696;104.058;2023-12-20T10:10:27;25.10;;;22.50;;
49536;SDS011;74893;30.696;104.058;2023-12-20T10:13:04;25.10;;;22.42;;
49536;SDS011;74893;30.696;104.058;2023-12-20T10:15:32;25.23;;;22.65;;
49536;SDS011;74893;30.696;104.058;2023-12-20T10:17:59;26.33;;;23.08;;
49536;SDS011;74893;30.696;104.058;2023-12-20T10:20:27;28.08;;;23.77;;
49536;SDS011;74893;30.696;104.058;2023-12-20T10:22:57;25.50;;;22.80;;
49536;SDS011;74893;30.696;104.058;2023-12-20T10:25:25;26.20;;;23.60;;
49536;SDS011;74893;30.696;104.058;2023-12-20T10:30:54;25.65;;;22.85;;
49536;SDS011;74893;30.696;104.058;2023-12-20T10:33:25;25.17;;;22.48;;
49536;SDS011;74893;30.696;104.058;2023-12-20T10:35:52;25.08;;;22.48;;
49536;SDS011;74893;30.696;104.058;2023-12-20T10:38:19;26.33;;;23.52;;
49536;SDS011;74893;30.696;104.058;2023-12-20T10:40:47;26.38;;;23.45;;
49536;SDS011;74893;30.696;104.058;2023-12-20T10:43:14;27.75;;;23.60;;
49536;SDS011;74893;30.696;104.058;2023-12-20T10:45:42;27.85;;;23.88;;
49536;SDS011;74893;30.696;104.058;2023-12-20T10:48:10;27.30;;;24.45;;
49536;SDS011;74893;30.696;104.058;2023-12-20T10:50:37;26.50;;;23.77;;
49536;SDS011;74893;30.696;104.058;2023-12-20T10:53:05;26.77;;;23.80;;
49536;SDS011;74893;30.696;104.058;2023-12-20T10:55:33;27.95;;;24.08;;
49536;SDS011;74893;30.696;104.058;2023-12-20T10:58:09;26.80;;;23.35;;
49536;SDS011;74893;30.696;104.058;2023-12-20T11:00:40;26.80;;;23.98;;
49536;SDS011;74893;30.696;104.058;2023-12-20T11:03:08;27.48;;;23.70;;
49536;SDS011;74893;30.696;104.058;2023-12-20T11:05:43;27.45;;;24.45;;
49536;SDS011;74893;30.696;104.058;2023-12-20T11:13:10;27.13;;;24.30;;
49536;SDS011;74893;30.696;104.058;2023-12-20T11:15:37;26.65;;;23.90;;
49536;SDS011;74893;30.696;104.058;2023-12-20T11:18:04;27.80;;;24.73;;
49536;SDS011;74893;30.696;104.058;2023-12-20T11:20:38;27.42;;;23.83;;
49536;SDS011;74893;30.696;104.058;2023-12-20T11:23:05;26.73;;;23.80;;
49536;SDS011;74893;30.696;104.058;2023-12-20T11:25:52;28.10;;;24.92;;
49536;SDS011;74893;30.696;104.058;2023-12-20T11:28:23;29.80;;;24.17;;
49536;SDS011;74893;30.696;104.058;2023-12-20T11:30:54;27.73;;;24.70;;
49536;SDS011;74893;30.696;104.058;2023-12-20T11:33:25;28.48;;;25.45;;
49536;SDS011;74893;30.696;104.058;2023-12-20T11:35:55;28.52;;;25.52;;
49536;SDS011;74893;30.696;104.058;2023-12-20T11:38:22;26.65;;;23.73;;
49536;SDS011;74893;30.696;104.058;2023-12-20T11:40:49;28.80;;;25.50;;
49536;SDS011;74893;30.696;104.058;2023-12-20T11:43:34;28.98;;;25.88;;
49536;SDS011;74893;30.696;104.058;2023-12-20T11:46:08;27.65;;;24.67;;
49536;SDS011;74893;30.696;104.058;2023-12-20T11:48:36;27.88;;;25.08;;
49536;SDS011;74893;30.696;104.058;2023-12-20T11:51:10;28.10;;;25.13;;
49536;SDS011;74893;30.696;104.058;2023-12-20T11:53:37;26.60;;;23.80;;
49536;SDS011;74893;30.696;104.058;2023-12-20T11:56:06;28.00;;;25.00;;
49536;SDS011;74893;30.696;104.058;2023-12-20T11:58:33;28.95;;;25.95;;
49536;SDS011;74893;30.696;104.058;2023-12-20T12:01:01;28.23;;;25.25;;
49536;SDS011;74893;30.696;104.058;2023-12-20T12:03:28;29.50;;;26.33;;
49536;SDS011;74893;30.696;104.058;2023-12-20T12:05:55;30.13;;;26.70;;
49536;SDS011;74893;30.696;104.058;2023-12-20T12:08:23;29.17;;;25.95;;
49536;SDS011;74893;30.696;104.058;2023-12-20T12:10:50;29.00;;;25.90;;
49536;SDS011;74893;30.696;104.058;2023-12-20T12:13:17;30.40;;;26.30;;
49536;SDS011;74893;30.696;104.058;2023-12-20T12:15:44;29.50;;;26.38;;
49536;SDS011;74893;30.696;104.058;2023-12-20T12:18:17;30.60;;;27.23;;
49536;SDS011;74893;30.696;104.058;2023-12-20T12:20:44;28.60;;;25.60;;
49536;SDS011;74893;30.696;104.058;2023-12-20T12:23:11;29.83;;;26.63;;
49536;SDS011;74893;30.696;104.058;2023-12-20T12:25:39;29.02;;;25.98;;
49536;SDS011;74893;30.696;104.058;2023-12-20T12:28:06;30.15;;;26.98;;
49536;SDS011;74893;30.696;104.058;2023-12-20T12:30:33;29.77;;;26.52;;
49536;SDS011;74893;30.696;104.058;2023-12-20T12:33:01;30.40;;;27.15;;
49536;SDS011;74893;30.696;104.058;2023-12-20T12:35:28;30.40;;;27.17;;
49536;SDS011;74893;30.696;104.058;2023-12-20T12:37:55;30.42;;;27.25;;
49536;SDS011;74893;30.696;104.058;2023-12-20T12:40:22;31.50;;;27.75;;
49536;SDS011;74893;30.696;104.058;2023-12-20T12:42:49;31.90;;;28.48;;
49536;SDS011;74893;30.696;104.058;2023-12-20T12:45:16;32.40;;;29.02;;
49536;SDS011;74893;30.696;104.058;2023-12-20T12:47:43;32.42;;;28.75;;
49536;SDS011;74893;30.696;104.058;2023-12-20T12:50:10;31.08;;;27.77;;
49536;SDS011;74893;30.696;104.058;2023-12-20T12:52:37;32.28;;;29.02;;
49536;SDS011;74893;30.696;104.058;2023-12-20T12:55:04;32.55;;;29.02;;
49536;SDS011;74893;30.696;104.058;2023-12-20T12:57:32;33.33;;;29.83;;
49536;SDS011;74893;30.696;104.058;2023-12-20T12:59:59;33.97;;;29.30;;
49536;SDS011;74893;30.696;104.058;2023-12-20T13:02:31;32.85;;;29.35;;
49536;SDS011;74893;30.696;104.058;2023-12-20T13:04:58;32.55;;;29.25;;
49536;SDS011;74893;30.696;104.058;2023-12-20T13:07:28;32.72;;;29.17;;
49536;SDS011;74893;30.696;104.058;2023-12-20T13:09:55;32.80;;;29.25;;
49536;SDS011;74893;30.696;104.058;2023-12-20T13:12:24;34.42;;;29.52;;
49536;SDS011;74893;30.696;104.058;2023-12-20T13:14:51;33.83;;;30.23;;
49536;SDS011;74893;30.696;104.058;2023-12-20T13:17:19;33.45;;;29.80;;
49536;SDS011;74893;30.696;104.058;2023-12-20T13:19:46;35.15;;;30.75;;
49536;SDS011;74893;30.696;104.058;2023-12-20T13:22:13;34.38;;;30.83;;
49536;SDS011;74893;30.696;104.058;2023-12-20T13:24:40;34.63;;;30.88;;
49536;SDS011;74893;30.696;104.058;2023-12-20T13:27:10;35.08;;;31.38;;
49536;SDS011;74893;30.696;104.058;2023-12-20T13:29:37;35.33;;;31.50;;
49536;SDS011;74893;30.696;104.058;2023-12-20T13:32:04;33.60;;;29.83;;
49536;SDS011;74893;30.696;104.058;2023-12-20T13:34:31;35.60;;;31.83;;
49536;SDS011;74893;30.696;104.058;2023-12-20T13:36:58;35.55;;;31.70;;
49536;SDS011;74893;30.696;104.058;2023-12-20T13:39:28;35.90;;;32.10;;
49536;SDS011;74893;30.696;104.058;2023-12-20T13:41:59;35.83;;;31.95;;
49536;SDS011;74893;30.696;104.058;2023-12-20T13:44:26;35.92;;;32.20;;
49536;SDS011;74893;30.696;104.058;2023-12-20T13:46:53;35.85;;;32.05;;
49536;SDS011;74893;30.696;104.058;2023-12-20T13:49:20;34.88;;;31.27;;
49536;SDS011;74893;30.696;104.058;2023-12-20T13:51:51;35.40;;;31.63;;
49536;SDS011;74893;30.696;104.058;2023-12-20T13:54:20;34.95;;;31.25;;
49536;SDS011;74893;30.696;104.058;2023-12-20T13:56:47;37.28;;;33.17;;
49536;SDS011;74893;30.696;104.058;2023-12-20T13:59:14;35.72;;;31.88;;
49536;SDS011;74893;30.696;104.058;2023-12-20T14:01:41;35.72;;;31.92;;
49536;SDS011;74893;30.696;104.058;2023-12-20T14:04:08;36.33;;;32.28;;
49536;SDS011;74893;30.696;104.058;2023-12-20T14:06:37;36.10;;;32.28;;